createdAt,value
2023-06-07T05:01:08.150Z,0.50
2023-06-07T05:02:08.078Z,0.50
2023-06-07T05:03:08.230Z,0.50
2023-06-07T05:04:08.156Z,0.50
2023-06-07T05:05:08.344Z,0.50
2023-06-07T05:06:08.176Z,0.50
2023-06-07T05:07:08.233Z,0.34
2023-06-07T05:08:08.267Z,0.34
2023-06-07T05:09:08.330Z,0.34
2023-06-07T05:10:08.810Z,0.34
2023-06-07T05:11:08.406Z,0.34
2023-06-07T05:12:08.437Z,0.34
2023-06-07T05:13:08.498Z,0.34
2023-06-07T05:14:08.462Z,0.34
2023-06-07T05:15:08.480Z,0.34
2023-06-07T05:16:08.564Z,0.34
2023-06-07T05:17:08.516Z,0.34
2023-06-07T05:18:08.642Z,0.34
2023-06-07T05:19:08.537Z,0.34
2023-06-07T05:20:08.609Z,0.34
2023-06-07T05:21:08.642Z,0.34
2023-06-07T05:22:08.648Z,0.34
2023-06-07T05:23:08.696Z,0.34
2023-06-07T05:24:08.799Z,0.34
2023-06-07T05:25:08.608Z,0.34
2023-06-07T05:26:08.640Z,0.36
2023-06-07T05:27:08.685Z,0.43
2023-06-07T05:28:13.643Z,0.50
2023-06-07T05:29:09.657Z,0.50
2023-06-07T05:30:08.667Z,0.46
2023-06-07T05:31:11.310Z,0.45
2023-06-07T05:32:08.695Z,0.44
2023-06-07T05:33:08.674Z,0.43
2023-06-07T05:34:08.612Z,0.40
2023-06-07T05:35:08.680Z,0.36
2023-06-07T05:36:08.611Z,0.35
2023-06-07T05:37:08.594Z,0.39
2023-06-07T05:38:08.625Z,0.45
2023-06-07T05:39:08.625Z,0.50
2023-06-07T05:40:08.609Z,0.51
2023-06-07T05:41:08.563Z,0.51
2023-06-07T05:42:08.962Z,0.50
2023-06-07T05:43:08.553Z,0.51
2023-06-07T05:44:08.745Z,0.50
2023-06-07T05:45:08.561Z,0.51
2023-06-07T05:46:08.587Z,0.51
2023-06-07T05:47:08.608Z,0.51
2023-06-07T05:48:08.796Z,0.53
2023-06-07T05:49:10.007Z,0.54
2023-06-07T05:50:08.855Z,0.56
2023-06-07T05:51:08.869Z,0.55
2023-06-07T05:52:08.516Z,0.53
2023-06-07T05:53:08.544Z,0.53
2023-06-07T05:54:08.526Z,0.53
2023-06-07T05:55:09.054Z,0.50
2023-06-07T05:56:08.489Z,0.51
2023-06-07T05:57:08.629Z,0.50
2023-06-07T05:58:08.454Z,0.50
2023-06-07T05:59:08.488Z,0.51
2023-06-07T06:00:08.629Z,0.51
2023-06-07T06:01:08.507Z,0.50
2023-06-07T06:02:08.443Z,0.52
2023-06-07T06:03:08.604Z,0.50
2023-06-07T06:04:08.462Z,0.52
2023-06-07T06:05:09.104Z,0.52
2023-06-07T06:06:08.413Z,0.52
2023-06-07T06:07:08.405Z,0.55
2023-06-07T06:08:09.048Z,0.58
2023-06-07T06:09:08.443Z,0.62
2023-06-07T06:10:08.617Z,0.62
2023-06-07T06:11:08.377Z,0.57
2023-06-07T06:12:08.454Z,0.56
2023-06-07T06:13:08.356Z,0.55
2023-06-07T06:14:08.631Z,0.54
2023-06-07T06:15:08.339Z,0.52
2023-06-07T06:16:11.240Z,0.53
2023-06-07T06:17:08.527Z,0.51
2023-06-07T06:18:08.481Z,0.51
2023-06-07T06:19:08.359Z,0.48
2023-06-07T06:20:10.806Z,0.50
2023-06-07T06:21:08.519Z,0.52
2023-06-07T06:22:14.957Z,0.49
2023-06-07T06:23:08.648Z,0.49
2023-06-07T06:24:08.498Z,0.47
2023-06-07T06:25:08.439Z,0.47
2023-06-07T06:26:08.397Z,0.49
2023-06-07T06:27:08.520Z,0.47
2023-06-07T06:28:08.509Z,0.51
2023-06-07T06:29:09.070Z,0.52
2023-06-07T06:30:08.578Z,0.53
2023-06-07T06:31:08.494Z,0.50
2023-06-07T06:32:08.577Z,0.52
2023-06-07T06:33:08.480Z,0.50
2023-06-07T06:34:08.427Z,0.51
2023-06-07T06:35:08.612Z,0.50
2023-06-07T06:36:08.363Z,0.51
2023-06-07T06:37:08.378Z,0.51
2023-06-07T06:38:08.339Z,0.53
2023-06-07T06:39:08.364Z,0.51
2023-06-07T06:40:08.421Z,0.51
2023-06-07T06:41:08.764Z,0.50
2023-06-07T06:42:08.422Z,0.52
2023-06-07T06:43:08.326Z,0.52
2023-06-07T06:44:08.644Z,0.53
2023-06-07T06:45:08.320Z,0.53
2023-06-07T06:46:08.321Z,0.52
2023-06-07T06:47:08.351Z,0.52
2023-06-07T06:48:08.290Z,0.50
2023-06-07T06:49:12.902Z,0.52
2023-06-07T06:50:18.580Z,0.52
2023-06-07T06:51:09.243Z,0.52
2023-06-07T06:52:08.236Z,0.52
2023-06-07T06:53:08.236Z,0.52
2023-06-07T06:54:08.256Z,0.52
2023-06-07T06:55:08.254Z,0.55
2023-06-07T06:56:08.203Z,0.52
2023-06-07T06:57:08.331Z,0.54
2023-06-07T06:58:08.204Z,0.55
2023-06-07T06:59:08.264Z,0.52
2023-06-07T07:00:08.302Z,0.53
2023-06-07T07:01:08.183Z,0.54
2023-06-07T07:02:08.286Z,0.50
2023-06-07T07:03:08.411Z,0.50
2023-06-07T07:04:08.234Z,0.55
2023-06-07T07:05:08.149Z,0.54
2023-06-07T07:06:08.186Z,0.54
2023-06-07T07:07:08.155Z,0.55
2023-06-07T07:08:08.680Z,0.58
2023-06-07T07:09:08.179Z,0.58
2023-06-07T07:10:08.315Z,0.67
2023-06-07T07:11:08.229Z,0.62
2023-06-07T07:12:08.227Z,0.63
2023-06-07T07:13:08.257Z,0.63
2023-06-07T07:14:08.279Z,0.67
2023-06-07T07:15:08.249Z,0.68
2023-06-07T07:16:08.644Z,0.64
2023-06-07T07:17:08.313Z,0.57
2023-06-07T07:18:08.521Z,0.57
2023-06-07T07:19:08.359Z,0.54
2023-06-07T07:20:08.584Z,0.58
2023-06-07T07:21:08.406Z,0.64
2023-06-07T07:22:08.324Z,0.67
2023-06-07T07:23:08.322Z,0.65
2023-06-07T07:24:08.517Z,0.65
2023-06-07T07:25:08.389Z,0.63
2023-06-07T07:26:08.392Z,0.59
2023-06-07T07:27:08.352Z,0.59
2023-06-07T07:28:09.088Z,0.60
2023-06-07T07:29:08.529Z,0.58
2023-06-07T07:30:08.557Z,0.61
2023-06-07T07:31:08.538Z,0.62
2023-06-07T07:32:08.604Z,0.57
2023-06-07T07:33:08.923Z,0.58
2023-06-07T07:34:08.677Z,0.59
2023-06-07T07:35:08.847Z,0.67
2023-06-07T07:36:08.826Z,0.81
2023-06-07T07:37:08.838Z,0.89
2023-06-07T07:38:13.539Z,0.92
2023-06-07T07:39:08.866Z,0.93
2023-06-07T07:40:09.018Z,0.93
2023-06-07T07:41:09.042Z,0.97
2023-06-07T07:42:08.906Z,1.02
2023-06-07T07:43:08.947Z,1.11
2023-06-07T07:44:08.859Z,1.15
2023-06-07T07:45:08.832Z,1.18
2023-06-07T07:46:08.868Z,1.08
2023-06-07T07:47:08.888Z,1.21
2023-06-07T07:48:08.913Z,1.30
2023-06-07T07:49:08.823Z,1.31
2023-06-07T07:50:08.870Z,1.42
2023-06-07T07:51:08.853Z,1.43
2023-06-07T07:52:08.780Z,1.48
2023-06-07T07:53:08.885Z,1.58
2023-06-07T07:54:08.746Z,1.75
2023-06-07T07:55:09.173Z,2.09
2023-06-07T07:56:08.819Z,2.25
2023-06-07T07:57:08.773Z,2.38
2023-06-07T07:58:08.758Z,2.55
2023-06-07T07:59:10.832Z,2.59
2023-06-07T08:00:08.850Z,2.57
2023-06-07T08:01:08.776Z,2.60
2023-06-07T08:02:08.826Z,2.68
2023-06-07T08:03:08.998Z,2.61
2023-06-07T08:04:08.938Z,2.58
2023-06-07T08:05:08.930Z,2.62
2023-06-07T08:06:09.052Z,2.65
2023-06-07T08:07:09.066Z,2.71
2023-06-07T08:08:09.133Z,2.75
2023-06-07T08:09:09.233Z,2.72
2023-06-07T08:10:09.224Z,2.67
2023-06-07T08:11:09.250Z,2.36
2023-06-07T08:12:09.302Z,2.43
2023-06-07T08:13:09.318Z,2.55
2023-06-07T08:14:09.383Z,2.55
2023-06-07T08:15:10.039Z,2.48
2023-06-07T08:16:09.518Z,2.48
2023-06-07T08:17:09.546Z,2.50
2023-06-07T08:18:09.551Z,2.45
2023-06-07T08:19:09.674Z,2.33
2023-06-07T08:20:09.683Z,2.36
2023-06-07T08:21:09.746Z,2.41
2023-06-07T08:22:09.748Z,2.37
2023-06-07T08:23:12.173Z,2.36
2023-06-07T08:24:10.020Z,2.37
2023-06-07T08:25:10.491Z,2.37
2023-06-07T08:26:09.857Z,2.37
2023-06-07T08:27:09.820Z,2.37
2023-06-07T08:28:09.798Z,2.37
2023-06-07T08:29:09.756Z,2.37
2023-06-07T08:30:09.767Z,2.33
2023-06-07T08:31:09.754Z,2.37
2023-06-07T08:32:09.903Z,2.40
2023-06-07T08:33:09.761Z,2.49
2023-06-07T08:34:09.700Z,2.57
2023-06-07T08:35:09.756Z,2.79
2023-06-07T08:36:09.722Z,2.73
2023-06-07T08:37:09.734Z,2.59
2023-06-07T08:38:09.758Z,2.56
2023-06-07T08:39:09.697Z,2.65
2023-06-07T08:40:09.690Z,2.66
2023-06-07T08:41:09.698Z,2.76
2023-06-07T08:42:09.721Z,2.73
2023-06-07T08:43:09.716Z,2.68
2023-06-07T08:44:09.765Z,2.76
2023-06-07T08:45:09.795Z,2.94
2023-06-07T08:46:10.169Z,3.20
2023-06-07T08:47:09.922Z,3.21
2023-06-07T08:48:09.970Z,3.53
2023-06-07T08:49:09.954Z,3.53
2023-06-07T08:50:09.934Z,3.68
2023-06-07T08:51:09.945Z,3.69
2023-06-07T08:52:16.311Z,3.84
2023-06-07T08:53:11.034Z,3.85
2023-06-07T08:54:09.990Z,3.89
2023-06-07T08:55:10.247Z,3.98
2023-06-07T08:56:09.955Z,4.10
2023-06-07T08:57:10.056Z,4.23
2023-06-07T08:58:09.953Z,4.38
2023-06-07T08:59:09.921Z,4.92
2023-06-07T09:00:10.369Z,5.03
2023-06-07T09:01:09.932Z,5.22
2023-06-07T09:02:09.934Z,5.39
2023-06-07T09:03:10.077Z,5.28
2023-06-07T09:04:09.937Z,5.41
2023-06-07T09:05:09.894Z,5.09
2023-06-07T09:06:09.901Z,4.64
2023-06-07T09:07:09.897Z,4.42
2023-06-07T09:08:09.893Z,4.24
2023-06-07T09:09:09.893Z,4.53
2023-06-07T09:10:09.848Z,4.64
2023-06-07T09:11:09.878Z,4.80
2023-06-07T09:12:09.911Z,5.00
2023-06-07T09:13:09.896Z,5.26
2023-06-07T09:14:09.950Z,5.28
2023-06-07T09:15:09.950Z,5.36
2023-06-07T09:16:10.132Z,5.52
2023-06-07T09:17:10.083Z,5.50
2023-06-07T09:18:10.030Z,5.66
2023-06-07T09:19:09.998Z,5.82
2023-06-07T09:20:09.977Z,6.37
2023-06-07T09:21:09.998Z,6.70
2023-06-07T09:22:10.056Z,6.62
2023-06-07T09:23:09.990Z,6.80
2023-06-07T09:24:10.077Z,6.87
2023-06-07T09:25:10.050Z,7.07
2023-06-07T09:26:10.026Z,7.28
2023-06-07T09:27:10.055Z,7.20
2023-06-07T09:28:10.223Z,7.48
2023-06-07T09:29:10.066Z,7.32
2023-06-07T09:30:10.068Z,7.15
2023-06-07T09:31:10.139Z,7.14
2023-06-07T09:32:10.137Z,7.21
2023-06-07T09:33:10.213Z,7.56
2023-06-07T09:34:10.141Z,8.00
2023-06-07T09:35:10.148Z,7.96
2023-06-07T09:36:10.470Z,8.14
2023-06-07T09:37:10.290Z,8.45
2023-06-07T09:38:10.277Z,8.48
2023-06-07T09:39:10.223Z,8.71
2023-06-07T09:40:10.335Z,8.90
2023-06-07T09:41:10.353Z,9.26
2023-06-07T09:42:10.419Z,9.46
2023-06-07T09:43:10.562Z,9.61
2023-06-07T09:44:10.550Z,9.85
2023-06-07T09:45:10.544Z,9.65
2023-06-07T09:46:10.643Z,9.38
2023-06-07T09:47:10.687Z,9.56
2023-06-07T09:48:11.007Z,9.37
2023-06-07T09:49:10.797Z,9.90
2023-06-07T09:50:10.755Z,10.02
2023-06-07T09:51:10.823Z,10.07
2023-06-07T09:52:10.951Z,10.11
2023-06-07T09:53:10.956Z,9.73
2023-06-07T09:54:11.100Z,7.32
2023-06-07T09:55:11.039Z,6.33
2023-06-07T09:56:11.058Z,4.03
2023-06-07T09:57:11.131Z,1.99
2023-06-07T09:58:11.127Z,1.55
2023-06-07T09:59:11.214Z,1.44
2023-06-07T10:00:11.187Z,1.28
2023-06-07T10:01:11.217Z,0.94
2023-06-07T10:02:11.119Z,0.98
2023-06-07T10:03:11.246Z,0.82
2023-06-07T10:04:12.136Z,0.99
2023-06-07T10:05:11.141Z,0.88
2023-06-07T10:06:11.170Z,0.74
2023-06-07T10:07:11.127Z,0.94
2023-06-07T10:08:11.244Z,0.98
2023-06-07T10:09:11.140Z,0.93
2023-06-07T10:10:11.722Z,1.08
2023-06-07T10:11:11.140Z,1.04
2023-06-07T10:12:11.149Z,1.02
2023-06-07T10:13:11.093Z,1.16
2023-06-07T10:14:11.071Z,0.93
2023-06-07T10:15:11.076Z,1.11
2023-06-07T10:16:11.142Z,1.16
2023-06-07T10:17:11.358Z,0.97
2023-06-07T10:18:11.085Z,0.87
2023-06-07T10:19:11.061Z,0.82
2023-06-07T10:20:11.060Z,0.79
2023-06-07T10:21:11.056Z,0.73
2023-06-07T10:22:11.057Z,0.83
2023-06-07T10:23:11.155Z,0.79
2023-06-07T10:24:11.208Z,0.67
2023-06-07T10:25:11.066Z,0.77
2023-06-07T10:26:11.107Z,0.85
2023-06-07T10:27:11.077Z,0.96
2023-06-07T10:28:11.272Z,1.06
2023-06-07T10:29:12.176Z,1.12
2023-06-07T10:30:11.274Z,1.12
2023-06-07T10:31:11.241Z,1.20
2023-06-07T10:32:11.233Z,1.25
2023-06-07T10:33:11.279Z,1.30
2023-06-07T10:34:11.250Z,1.26
2023-06-07T10:35:13.594Z,1.36
2023-06-07T10:36:11.221Z,1.31
2023-06-07T10:37:11.259Z,1.29
2023-06-07T10:38:11.256Z,1.37
2023-06-07T10:39:11.322Z,1.45
2023-06-07T10:40:11.388Z,1.63
2023-06-07T10:41:14.096Z,1.54
2023-06-07T10:42:11.357Z,1.55
2023-06-07T10:43:11.319Z,1.56
2023-06-07T10:44:11.215Z,1.55
2023-06-07T10:45:11.207Z,1.65
2023-06-07T10:46:11.245Z,1.77
2023-06-07T10:47:11.310Z,1.74
2023-06-07T10:48:11.249Z,1.78
2023-06-07T10:49:11.218Z,1.75
2023-06-07T10:50:11.499Z,1.75
2023-06-07T10:51:11.139Z,1.76
2023-06-07T10:52:11.289Z,1.83
2023-06-07T10:53:13.930Z,1.94
2023-06-07T10:54:11.147Z,1.75
2023-06-07T10:55:11.169Z,1.78
2023-06-07T10:56:12.182Z,1.78
2023-06-07T10:57:11.208Z,1.84
2023-06-07T10:58:11.087Z,1.86
2023-06-07T10:59:11.114Z,1.97
2023-06-07T11:00:11.179Z,1.92
2023-06-07T11:01:11.161Z,1.98
2023-06-07T11:02:11.174Z,1.94
2023-06-07T11:03:11.080Z,2.01
2023-06-07T11:04:11.261Z,2.04
2023-06-07T11:05:11.171Z,2.08
2023-06-07T11:06:11.071Z,2.17
2023-06-07T11:07:11.054Z,2.13
2023-06-07T11:08:11.014Z,2.23
2023-06-07T11:09:11.019Z,2.33
2023-06-07T11:10:11.451Z,2.34
2023-06-07T11:11:11.785Z,2.29
2023-06-07T11:12:11.008Z,2.49
2023-06-07T11:13:14.458Z,2.50
2023-06-07T11:14:11.106Z,2.42
2023-06-07T11:15:11.026Z,2.30
2023-06-07T11:16:11.041Z,2.37
2023-06-07T11:17:11.051Z,2.33
2023-06-07T11:18:15.512Z,2.43
2023-06-07T11:19:11.947Z,2.49
2023-06-07T11:20:10.972Z,2.44
2023-06-07T11:21:10.938Z,2.31
2023-06-07T11:22:11.033Z,2.44
2023-06-07T11:23:10.962Z,2.48
2023-06-07T11:24:10.983Z,2.47
2023-06-07T11:25:10.962Z,2.36
2023-06-07T11:26:10.938Z,2.33
2023-06-07T11:27:10.981Z,2.30
2023-06-07T11:28:10.908Z,2.29
2023-06-07T11:29:10.893Z,2.23
2023-06-07T11:30:10.932Z,2.19
2023-06-07T11:31:10.986Z,2.18
2023-06-07T11:32:10.904Z,1.93
2023-06-07T11:33:10.873Z,1.83
2023-06-07T11:34:10.847Z,1.87
2023-06-07T11:35:16.631Z,1.91
2023-06-07T11:36:12.610Z,1.91
2023-06-07T11:37:10.888Z,1.91
2023-06-07T11:38:10.858Z,1.92
2023-06-07T11:39:10.908Z,1.87
2023-06-07T11:40:10.827Z,1.79
2023-06-07T11:41:10.832Z,1.78
2023-06-07T11:42:10.813Z,1.81
2023-06-07T11:43:10.796Z,1.85
2023-06-07T11:44:10.804Z,1.85
2023-06-07T11:45:10.823Z,1.92
2023-06-07T11:46:10.838Z,1.88
2023-06-07T11:47:10.873Z,1.98
2023-06-07T11:48:10.898Z,1.97
2023-06-07T11:49:11.020Z,1.95
2023-06-07T11:50:10.965Z,1.77
2023-06-07T11:51:11.264Z,1.77
2023-06-07T11:52:11.168Z,1.54
2023-06-07T11:53:13.280Z,1.53
2023-06-07T11:54:11.224Z,1.31
2023-06-07T11:55:11.225Z,1.23
2023-06-07T11:56:11.172Z,0.99
2023-06-07T11:57:11.229Z,1.02
2023-06-07T11:58:11.223Z,1.05
2023-06-07T11:59:11.246Z,0.82
2023-06-07T12:00:11.232Z,0.61
2023-06-07T12:01:11.253Z,0.55
2023-06-07T12:02:11.304Z,0.55
2023-06-07T12:03:11.572Z,0.58
2023-06-07T12:04:11.401Z,0.53
2023-06-07T12:05:11.303Z,0.59
2023-06-07T12:06:11.333Z,0.56
2023-06-07T12:07:11.330Z,0.56
2023-06-07T12:08:11.386Z,0.51
2023-06-07T12:09:11.352Z,0.50
2023-06-07T12:10:11.382Z,0.60
2023-06-07T12:11:11.393Z,0.47
2023-06-07T12:12:11.380Z,0.53
2023-06-07T12:13:11.450Z,0.49
2023-06-07T12:14:11.424Z,0.49
2023-06-07T12:15:11.457Z,0.53
2023-06-07T12:16:11.504Z,0.58
2023-06-07T12:17:11.473Z,0.51
2023-06-07T12:18:11.504Z,0.60
2023-06-07T12:19:11.535Z,0.58
2023-06-07T12:20:11.490Z,0.53
2023-06-07T12:21:11.517Z,0.52
2023-06-07T12:22:11.588Z,0.55
2023-06-07T12:23:11.820Z,0.50
2023-06-07T12:24:11.728Z,0.51
2023-06-07T12:25:11.665Z,0.50
2023-06-07T12:26:11.634Z,0.53
2023-06-07T12:27:11.597Z,0.57
2023-06-07T12:28:11.612Z,0.55
2023-06-07T12:29:11.640Z,0.55
2023-06-07T12:30:11.709Z,0.56
2023-06-07T12:31:11.672Z,0.52
2023-06-07T12:32:11.643Z,0.54
2023-06-07T12:33:11.685Z,0.54
2023-06-07T12:34:11.683Z,0.52
2023-06-07T12:35:11.687Z,0.50
2023-06-07T12:36:11.755Z,0.55
2023-06-07T12:37:11.712Z,0.56
2023-06-07T12:38:11.732Z,0.51
2023-06-07T12:39:11.802Z,0.52
2023-06-07T12:40:11.800Z,0.50
2023-06-07T12:41:11.859Z,0.53
2023-06-07T12:42:11.809Z,0.59
2023-06-07T12:43:11.919Z,0.59
2023-06-07T12:44:11.943Z,0.55
2023-06-07T12:45:11.953Z,0.56
2023-06-07T12:46:11.989Z,0.50
2023-06-07T12:47:12.109Z,0.49
2023-06-07T12:48:12.051Z,0.55
2023-06-07T12:49:12.094Z,0.61
2023-06-07T12:50:12.165Z,0.57
2023-06-07T12:51:12.306Z,0.63
2023-06-07T12:52:12.640Z,0.68
2023-06-07T12:53:12.399Z,0.77
2023-06-07T12:54:12.389Z,0.89
2023-06-07T12:55:12.348Z,0.91
2023-06-07T12:56:12.430Z,1.00
2023-06-07T12:57:12.471Z,0.95
2023-06-07T12:58:12.536Z,1.07
2023-06-07T12:59:12.578Z,1.21
2023-06-07T13:00:12.654Z,1.26
2023-06-07T13:01:12.776Z,1.42
2023-06-07T13:02:12.699Z,1.55
2023-06-07T13:03:12.801Z,1.66
2023-06-07T13:04:13.240Z,1.66
2023-06-07T13:05:12.918Z,1.68
2023-06-07T13:06:12.907Z,1.65
2023-06-07T13:07:12.955Z,1.81
2023-06-07T13:08:12.990Z,1.85
2023-06-07T13:09:13.033Z,1.62
2023-06-07T13:10:13.081Z,1.89
2023-06-07T13:11:13.123Z,2.05
2023-06-07T13:12:13.174Z,2.23
2023-06-07T13:13:13.646Z,2.11
2023-06-07T13:14:13.249Z,2.19
2023-06-07T13:15:13.302Z,2.22
2023-06-07T13:16:13.446Z,1.95
2023-06-07T13:17:13.602Z,1.81
2023-06-07T13:18:13.685Z,2.02
2023-06-07T13:19:13.595Z,2.13
2023-06-07T13:20:13.628Z,1.91
2023-06-07T13:21:13.638Z,2.14
2023-06-07T13:22:13.725Z,2.30
2023-06-07T13:23:13.781Z,2.45
2023-06-07T13:24:13.843Z,2.51
2023-06-07T13:25:13.876Z,2.57
2023-06-07T13:26:13.912Z,2.70
2023-06-07T13:27:13.962Z,2.79
2023-06-07T13:28:14.034Z,2.89
2023-06-07T13:29:14.109Z,2.97
2023-06-07T13:30:14.127Z,3.02
2023-06-07T13:31:14.178Z,2.94
2023-06-07T13:32:14.600Z,3.05
2023-06-07T13:33:14.300Z,3.06
2023-06-07T13:34:14.391Z,3.02
2023-06-07T13:35:14.422Z,2.94
2023-06-07T13:36:14.493Z,3.12
2023-06-07T13:37:14.536Z,3.11
2023-06-07T13:38:14.555Z,3.06
2023-06-07T13:39:14.624Z,2.84
2023-06-07T13:40:14.770Z,3.00
2023-06-07T13:41:14.770Z,3.07
2023-06-07T13:42:14.888Z,2.97
2023-06-07T13:43:14.850Z,2.76
2023-06-07T13:44:18.036Z,3.01
2023-06-07T13:45:15.122Z,3.02
2023-06-07T13:46:15.001Z,3.05
2023-06-07T13:47:19.692Z,3.12
2023-06-07T13:48:14.965Z,3.04
2023-06-07T13:49:14.884Z,3.08
2023-06-07T13:50:14.862Z,3.22
2023-06-07T13:51:14.875Z,3.47
2023-06-07T13:52:14.915Z,4.15
2023-06-07T13:53:14.861Z,4.64
2023-06-07T13:54:14.837Z,4.97
2023-06-07T13:55:14.882Z,5.38
2023-06-07T13:56:14.968Z,5.68
2023-06-07T13:57:14.903Z,6.14
2023-06-07T13:58:14.979Z,6.44
2023-06-07T13:59:15.084Z,6.79
2023-06-07T14:00:15.076Z,7.06
2023-06-07T14:01:15.236Z,7.34
2023-06-07T14:02:15.178Z,7.36
2023-06-07T14:03:15.398Z,7.04
2023-06-07T14:04:15.354Z,7.01
2023-06-07T14:05:15.448Z,7.29
2023-06-07T14:06:15.330Z,6.92
2023-06-07T14:07:15.411Z,6.81
2023-06-07T14:08:15.477Z,6.65
2023-06-07T14:09:15.493Z,6.67
2023-06-07T14:10:15.593Z,6.62
2023-06-07T14:11:15.610Z,6.85
2023-06-07T14:12:15.675Z,6.63
2023-06-07T14:13:15.747Z,7.02
2023-06-07T14:14:15.821Z,7.13
2023-06-07T14:15:15.847Z,7.26
2023-06-07T14:16:15.886Z,7.37
2023-06-07T14:17:16.026Z,7.22
2023-06-07T14:18:15.981Z,7.30
2023-06-07T14:19:16.067Z,7.51
2023-06-07T14:20:16.099Z,7.71
2023-06-07T14:21:16.193Z,7.72
2023-06-07T14:22:18.549Z,7.57
2023-06-07T14:23:16.235Z,7.98
2023-06-07T14:24:16.352Z,7.82
2023-06-07T14:25:16.164Z,7.75
2023-06-07T14:26:16.520Z,7.89
2023-06-07T14:27:16.201Z,7.93
2023-06-07T14:28:18.387Z,7.70
2023-06-07T14:29:16.204Z,7.72
2023-06-07T14:30:16.232Z,7.77
2023-06-07T14:31:16.201Z,7.86
2023-06-07T14:32:16.154Z,7.92
2023-06-07T14:33:16.276Z,8.05
2023-06-07T14:34:16.112Z,8.09
2023-06-07T14:35:16.114Z,8.26
2023-06-07T14:36:16.129Z,8.20
2023-06-07T14:37:16.211Z,8.13
2023-06-07T14:38:16.089Z,8.40
2023-06-07T14:39:16.087Z,8.55
2023-06-07T14:40:16.072Z,8.76
2023-06-07T14:41:16.163Z,8.82
2023-06-07T14:42:18.257Z,8.85
2023-06-07T14:43:16.165Z,8.87
2023-06-07T14:44:16.152Z,9.07
2023-06-07T14:45:16.195Z,9.33
2023-06-07T14:46:17.753Z,8.89
2023-06-07T14:47:16.124Z,9.08
2023-06-07T14:48:16.048Z,9.50
2023-06-07T14:49:16.050Z,10.85
2023-06-07T14:50:16.039Z,8.95
2023-06-07T14:51:17.773Z,9.35
2023-06-07T14:52:16.112Z,10.29
2023-06-07T14:53:15.968Z,11.68
2023-06-07T14:54:17.712Z,14.17
2023-06-07T14:55:17.064Z,14.91
2023-06-07T14:56:16.000Z,14.87
2023-06-07T14:57:15.936Z,14.36
2023-06-07T14:58:15.992Z,14.61
2023-06-07T14:59:16.003Z,14.43
2023-06-07T15:00:16.076Z,14.33
2023-06-07T15:01:16.152Z,14.44
2023-06-07T15:02:16.160Z,14.47
2023-06-07T15:03:16.337Z,14.33
2023-06-07T15:04:16.302Z,14.36
2023-06-07T15:05:16.349Z,14.55
2023-06-07T15:06:16.294Z,14.41
2023-06-07T15:07:16.361Z,14.26
2023-06-07T15:08:16.401Z,14.21
2023-06-07T15:09:16.499Z,14.05
2023-06-07T15:10:16.532Z,14.03
2023-06-07T15:11:16.544Z,14.08
2023-06-07T15:12:16.597Z,13.98
2023-06-07T15:13:16.612Z,13.35
2023-06-07T15:14:16.699Z,13.52
2023-06-07T15:15:16.780Z,13.70
2023-06-07T15:16:16.900Z,13.42
2023-06-07T15:17:16.843Z,13.35
2023-06-07T15:18:16.941Z,13.11
2023-06-07T15:19:16.895Z,13.28
2023-06-07T15:20:16.970Z,12.98
2023-06-07T15:21:17.034Z,13.16
2023-06-07T15:22:17.091Z,13.15
2023-06-07T15:23:17.120Z,13.01
2023-06-07T15:24:17.272Z,13.09
2023-06-07T15:25:17.196Z,12.81
2023-06-07T15:26:17.275Z,12.56
2023-06-07T15:27:17.335Z,12.54
2023-06-07T15:28:17.354Z,12.55
2023-06-07T15:29:17.423Z,12.35
2023-06-07T15:30:17.434Z,12.08
2023-06-07T15:31:17.451Z,12.41
2023-06-07T15:32:17.511Z,12.12
2023-06-07T15:33:17.547Z,12.24
2023-06-07T15:34:17.634Z,11.76
2023-06-07T15:35:17.608Z,11.58
2023-06-07T15:36:17.716Z,11.70
2023-06-07T15:37:17.738Z,11.69
2023-06-07T15:38:17.766Z,11.80
2023-06-07T15:39:17.820Z,11.65
2023-06-07T15:40:17.816Z,11.60
2023-06-07T15:41:17.835Z,11.38
2023-06-07T15:42:17.881Z,11.56
2023-06-07T15:43:17.961Z,11.38
2023-06-07T15:44:17.986Z,11.37
2023-06-07T15:45:18.006Z,10.95
2023-06-07T15:46:18.075Z,11.41
2023-06-07T15:47:18.052Z,11.03
2023-06-07T15:48:18.078Z,11.15
2023-06-07T15:49:18.085Z,11.03
2023-06-07T15:50:18.115Z,10.70
2023-06-07T15:51:18.147Z,10.88
2023-06-07T15:52:18.194Z,10.70
2023-06-07T15:53:18.221Z,10.81
2023-06-07T15:54:18.235Z,10.64
2023-06-07T15:55:18.272Z,10.66
2023-06-07T15:56:18.282Z,10.62
2023-06-07T15:57:19.235Z,10.58
2023-06-07T15:58:18.296Z,10.66
2023-06-07T15:59:18.324Z,10.30
2023-06-07T16:00:32.756Z,10.30
2023-06-07T16:01:19.309Z,10.31
2023-06-07T16:02:18.318Z,10.33
2023-06-07T16:03:18.441Z,10.31
2023-06-07T16:04:18.409Z,9.85
2023-06-07T16:05:18.259Z,9.83
2023-06-07T16:06:18.253Z,9.63
2023-06-07T16:07:18.269Z,9.78
2023-06-07T16:08:18.254Z,9.52
2023-06-07T16:09:18.227Z,9.37
2023-06-07T16:10:18.258Z,9.42
2023-06-07T16:11:18.256Z,9.36
2023-06-07T16:12:18.236Z,9.31
2023-06-07T16:13:18.295Z,9.05
2023-06-07T16:14:18.228Z,9.36
2023-06-07T16:15:18.304Z,9.08
2023-06-07T16:16:18.207Z,9.11
2023-06-07T16:17:18.227Z,9.14
2023-06-07T16:18:18.210Z,9.17
2023-06-07T16:19:18.190Z,9.34
2023-06-07T16:20:18.189Z,9.32
2023-06-07T16:21:18.165Z,9.19
2023-06-07T16:22:18.197Z,9.06
2023-06-07T16:23:18.155Z,9.09
2023-06-07T16:24:18.278Z,9.04
2023-06-07T16:25:18.154Z,9.07
2023-06-07T16:26:18.159Z,8.98
2023-06-07T16:27:18.158Z,8.76
2023-06-07T16:28:18.146Z,8.57
2023-06-07T16:29:18.149Z,8.75
2023-06-07T16:30:18.114Z,8.78
2023-06-07T16:31:18.176Z,8.75
2023-06-07T16:32:18.078Z,8.67
2023-06-07T16:33:18.126Z,8.83
2023-06-07T16:34:18.117Z,8.66
2023-06-07T16:35:18.144Z,8.54
2023-06-07T16:36:18.130Z,8.59
2023-06-07T16:37:18.131Z,8.54
2023-06-07T16:38:18.178Z,8.43
2023-06-07T16:39:18.189Z,8.49
2023-06-07T16:40:18.182Z,8.54
2023-06-07T16:41:18.189Z,8.42
2023-06-07T16:42:18.210Z,8.38
2023-06-07T16:43:18.223Z,8.28
2023-06-07T16:44:18.767Z,8.21
2023-06-07T16:45:18.251Z,8.31
2023-06-07T16:46:18.337Z,8.16
2023-06-07T16:47:18.297Z,8.27
2023-06-07T16:48:18.279Z,8.17
2023-06-07T16:49:18.325Z,8.24
2023-06-07T16:50:18.328Z,8.06
2023-06-07T16:51:18.330Z,8.06
2023-06-07T16:52:18.348Z,8.01
2023-06-07T16:53:18.435Z,7.95
2023-06-07T16:54:18.363Z,7.99
2023-06-07T16:55:18.422Z,7.98
2023-06-07T16:56:18.393Z,7.98
2023-06-07T16:57:18.414Z,7.87
2023-06-07T16:58:18.454Z,7.92
2023-06-07T16:59:18.440Z,7.78
2023-06-07T17:00:26.930Z,7.72
